createdAt,value
2023-03-24T00:01:29.763Z,12.00
2023-03-24T00:03:59.378Z,12.00
2023-03-24T00:06:28.191Z,12.00
2023-03-24T00:08:56.883Z,11.90
2023-03-24T00:11:26.619Z,11.90
2023-03-24T00:13:58.633Z,11.90
2023-03-24T00:16:27.875Z,11.90
2023-03-24T00:18:58.540Z,11.90
2023-03-24T00:21:27.593Z,11.90
2023-03-24T00:23:58.532Z,11.80
2023-03-24T00:26:27.306Z,11.80
2023-03-24T00:28:57.209Z,11.90
2023-03-24T00:31:27.221Z,11.80
2023-03-24T00:33:57.997Z,11.80
2023-03-24T00:36:29.366Z,11.80
2023-03-24T00:38:59.230Z,11.80
2023-03-24T00:41:29.112Z,11.80
2023-03-24T00:43:59.441Z,11.80
2023-03-24T00:46:29.197Z,11.80
2023-03-24T00:49:06.313Z,11.80
2023-03-24T00:51:37.549Z,11.80
2023-03-24T00:54:06.954Z,11.80
2023-03-24T00:56:38.042Z,11.80
2023-03-24T00:59:06.826Z,11.80
2023-03-24T01:01:37.911Z,11.90
2023-03-24T01:04:08.734Z,11.90
2023-03-24T01:06:40.163Z,11.90
2023-03-24T01:09:10.831Z,11.90
2023-03-24T01:11:41.768Z,11.90
2023-03-24T01:14:11.700Z,11.90
2023-03-24T01:16:41.050Z,11.90
2023-03-24T01:19:11.452Z,11.90
2023-03-24T01:21:42.551Z,11.90
2023-03-24T01:24:13.781Z,11.90
2023-03-24T01:26:42.596Z,11.90
2023-03-24T01:29:11.709Z,12.00
2023-03-24T01:31:40.446Z,12.00
2023-03-24T01:34:10.879Z,12.00
2023-03-24T01:36:39.472Z,12.00
2023-03-24T01:39:08.189Z,12.00
2023-03-24T01:41:41.245Z,12.00
2023-03-24T01:44:33.052Z,12.00
2023-03-24T01:47:03.370Z,12.00
2023-03-24T01:49:38.693Z,12.00
2023-03-24T01:52:14.244Z,12.00
2023-03-24T01:54:47.276Z,12.00
2023-03-24T01:57:21.780Z,12.10
2023-03-24T01:59:52.654Z,12.10
2023-03-24T02:02:44.195Z,12.10
2023-03-24T02:05:16.758Z,12.10
2023-03-24T02:07:52.521Z,12.10
2023-03-24T02:10:23.955Z,12.10
2023-03-24T02:12:52.793Z,12.10
2023-03-24T02:15:22.387Z,12.10
2023-03-24T02:18:04.773Z,12.10
2023-03-24T02:21:16.131Z,12.00
2023-03-24T02:24:35.491Z,12.00
2023-03-24T02:27:11.026Z,12.00
2023-03-24T02:30:16.603Z,12.10
2023-03-24T02:33:23.026Z,12.10
2023-03-24T02:36:23.808Z,12.10
2023-03-24T02:39:27.982Z,12.10
2023-03-24T02:42:07.095Z,12.10
2023-03-24T02:44:43.618Z,12.20
2023-03-24T02:47:20.195Z,12.20
2023-03-24T02:49:58.396Z,12.20
2023-03-24T02:52:36.724Z,12.30
2023-03-24T02:55:11.112Z,12.40
2023-03-24T02:57:46.174Z,12.40
2023-03-24T03:00:50.797Z,12.50
2023-03-24T03:03:41.805Z,12.60
2023-03-24T03:06:16.685Z,12.60
2023-03-24T03:08:47.810Z,12.70
2023-03-24T03:11:18.254Z,12.80
2023-03-24T03:13:54.266Z,12.80
2023-03-24T03:16:27.089Z,12.90
2023-03-24T03:19:00.208Z,13.00
2023-03-24T03:21:34.101Z,13.10
2023-03-24T03:24:06.098Z,13.20
2023-03-24T03:26:36.156Z,13.20
2023-03-24T03:29:11.837Z,13.30
2023-03-24T03:31:43.688Z,13.40
2023-03-24T03:34:19.114Z,13.50
2023-03-24T03:36:52.162Z,13.70
2023-03-24T03:39:26.424Z,13.70
2023-03-24T03:41:55.527Z,13.90
2023-03-24T03:44:26.101Z,13.90
2023-03-24T03:46:55.329Z,13.90
2023-03-24T03:49:33.599Z,13.90
2023-03-24T03:52:02.457Z,13.90
2023-03-24T03:54:34.332Z,13.70
2023-03-24T03:57:03.471Z,13.60
2023-03-24T03:59:45.712Z,13.30
2023-03-24T04:02:35.768Z,13.20
2023-03-24T04:05:29.366Z,13.20
2023-03-24T04:08:25.309Z,13.10
2023-03-24T04:11:40.693Z,13.00
2023-03-24T04:14:35.670Z,13.00
2023-03-24T04:17:49.667Z,12.90
2023-03-24T04:20:46.808Z,12.70
2023-03-24T04:23:27.591Z,12.60
2023-03-24T04:26:10.758Z,12.60
2023-03-24T04:28:48.090Z,12.60
2023-03-24T04:31:26.214Z,12.50
2023-03-24T04:34:03.611Z,12.50
2023-03-24T04:36:42.697Z,12.50
2023-03-24T04:39:32.344Z,12.40
2023-03-24T04:42:07.548Z,12.40
2023-03-24T04:44:36.286Z,12.30
2023-03-24T04:47:29.265Z,12.30
2023-03-24T04:50:31.843Z,12.20
2023-03-24T04:53:03.141Z,12.30
2023-03-24T04:55:49.598Z,12.20
2023-03-24T04:58:24.689Z,12.20
2023-03-24T05:00:55.685Z,12.20
2023-03-24T05:03:25.585Z,12.30
2023-03-24T05:05:55.617Z,12.30
2023-03-24T05:08:24.295Z,12.20
2023-03-24T05:10:53.547Z,12.20
2023-03-24T05:13:22.148Z,12.20
2023-03-24T05:15:57.326Z,12.20
2023-03-24T05:18:32.048Z,12.20
2023-03-24T05:21:02.189Z,12.10
2023-03-24T05:23:30.898Z,12.10
2023-03-24T05:26:00.110Z,12.00
2023-03-24T05:28:32.127Z,11.80
2023-03-24T05:31:01.745Z,11.70
2023-03-24T05:33:44.866Z,11.60
2023-03-24T05:36:19.037Z,11.50
2023-03-24T05:38:55.498Z,11.40
2023-03-24T05:41:27.759Z,11.40
2023-03-24T05:43:56.394Z,11.40
2023-03-24T05:46:26.697Z,11.30
2023-03-24T05:48:56.263Z,11.20
2023-03-24T05:51:31.893Z,11.30
2023-03-24T05:54:06.535Z,11.20
2023-03-24T05:56:41.945Z,11.10
2023-03-24T05:59:29.544Z,11.00
2023-03-24T06:02:18.186Z,11.00
2023-03-24T06:05:09.917Z,10.90
2023-03-24T06:07:42.472Z,11.00
2023-03-24T06:10:14.579Z,11.10
2023-03-24T06:12:53.140Z,11.10
2023-03-24T06:15:22.803Z,11.10
2023-03-24T06:17:57.264Z,11.10
2023-03-24T06:20:36.287Z,11.00
2023-03-24T06:23:06.436Z,10.90
2023-03-24T06:25:44.964Z,10.80
2023-03-24T06:28:22.000Z,10.70
2023-03-24T06:30:52.125Z,10.60
2023-03-24T06:33:30.028Z,10.60
2023-03-24T06:35:59.319Z,10.60
2023-03-24T06:38:29.804Z,10.60
2023-03-24T06:41:02.113Z,10.60
2023-03-24T06:43:31.800Z,10.60
2023-03-24T06:46:01.638Z,10.60
2023-03-24T06:48:31.693Z,10.60
2023-03-24T06:51:04.451Z,10.60
2023-03-24T06:53:34.800Z,10.60
2023-03-24T06:56:04.243Z,10.70
2023-03-24T06:58:40.451Z,10.70
2023-03-24T07:01:12.714Z,10.80
2023-03-24T07:03:48.511Z,10.70
2023-03-24T07:06:25.957Z,10.70
2023-03-24T07:08:59.746Z,10.80
2023-03-24T07:11:31.736Z,10.80
2023-03-24T07:14:02.704Z,10.80
2023-03-24T07:16:32.647Z,10.80
2023-03-24T07:19:19.429Z,10.90
2023-03-24T07:21:52.876Z,11.00
2023-03-24T07:24:32.971Z,11.10
2023-03-24T07:27:14.620Z,11.10
2023-03-24T07:29:43.222Z,11.30
2023-03-24T07:32:26.204Z,11.40
2023-03-24T07:34:54.934Z,11.40
2023-03-24T07:37:23.568Z,11.40
2023-03-24T07:39:53.952Z,11.40
2023-03-24T07:42:22.509Z,11.40
2023-03-24T07:45:12.389Z,11.40
2023-03-24T07:47:44.278Z,11.50
2023-03-24T07:50:14.319Z,11.60
2023-03-24T07:52:44.712Z,11.60
2023-03-24T07:55:17.903Z,11.70
2023-03-24T07:57:56.125Z,11.70
2023-03-24T08:00:27.195Z,11.80
2023-03-24T08:03:09.686Z,11.90
2023-03-24T08:05:46.043Z,12.00
2023-03-24T08:08:23.384Z,12.10
2023-03-24T08:10:53.504Z,12.20
2023-03-24T08:13:21.980Z,12.40
2023-03-24T08:15:51.557Z,12.50
2023-03-24T08:18:20.881Z,12.60
2023-03-24T08:20:50.626Z,12.70
2023-03-24T08:23:19.221Z,12.60
2023-03-24T08:25:48.868Z,12.50
2023-03-24T08:28:19.072Z,12.50
2023-03-24T08:30:48.210Z,12.50
2023-03-24T08:33:18.226Z,12.30
2023-03-24T08:35:47.754Z,12.20
2023-03-24T08:38:18.853Z,12.20
2023-03-24T08:40:49.186Z,12.10
2023-03-24T08:43:23.275Z,12.10
2023-03-24T08:45:51.972Z,12.20
2023-03-24T08:48:21.758Z,12.30
2023-03-24T08:50:50.919Z,12.30
2023-03-24T08:53:20.039Z,12.40
2023-03-24T08:55:48.826Z,12.50
2023-03-24T08:58:22.007Z,12.60
2023-03-24T09:00:50.935Z,12.70
2023-03-24T09:03:22.922Z,12.90
2023-03-24T09:05:52.321Z,13.00
2023-03-24T09:08:21.479Z,13.20
2023-03-24T09:10:51.462Z,13.40
2023-03-24T09:13:22.406Z,13.40
2023-03-24T09:15:52.491Z,13.50
2023-03-24T09:18:23.141Z,13.50
2023-03-24T09:20:52.452Z,13.60
2023-03-24T09:23:21.932Z,13.70
2023-03-24T09:25:51.440Z,13.80
2023-03-24T09:28:21.996Z,14.20
2023-03-24T09:30:51.192Z,14.40
2023-03-24T09:33:19.974Z,14.50
2023-03-24T09:35:56.509Z,14.80
2023-03-24T09:38:28.507Z,15.00
2023-03-24T09:41:01.147Z,14.90
2023-03-24T09:43:37.802Z,15.10
2023-03-24T09:46:12.772Z,14.90
2023-03-24T09:48:46.818Z,14.80
2023-03-24T09:51:22.080Z,14.70
2023-03-24T09:53:59.540Z,14.60
2023-03-24T09:56:29.964Z,14.60
2023-03-24T09:59:06.167Z,14.50
2023-03-24T10:01:36.585Z,14.40
2023-03-24T10:04:06.715Z,14.20
2023-03-24T10:06:42.179Z,14.30
2023-03-24T10:09:24.817Z,14.40
2023-03-24T10:12:07.103Z,14.70
2023-03-24T10:14:52.740Z,15.00
2023-03-24T10:17:28.689Z,15.40
2023-03-24T10:20:03.269Z,15.40
2023-03-24T10:22:37.828Z,15.50
2023-03-24T10:25:16.047Z,15.50
2023-03-24T10:27:50.578Z,15.30
2023-03-24T10:30:24.463Z,15.70
2023-03-24T10:32:54.917Z,15.40
2023-03-24T10:35:29.263Z,16.00
2023-03-24T10:38:01.875Z,16.50
2023-03-24T10:40:33.998Z,16.50
2023-03-24T10:43:09.973Z,15.70
2023-03-24T10:45:44.383Z,15.60
2023-03-24T10:48:16.104Z,15.50
2023-03-24T10:50:46.570Z,15.20
2023-03-24T10:53:20.790Z,15.00
2023-03-24T10:55:50.920Z,14.80
2023-03-24T10:58:27.046Z,14.80
2023-03-24T11:00:58.985Z,14.70
2023-03-24T11:03:31.181Z,15.00
2023-03-24T11:06:02.229Z,15.10
2023-03-24T11:08:36.249Z,15.20
2023-03-24T11:11:16.289Z,15.30
2023-03-24T11:14:03.949Z,15.40
2023-03-24T11:16:39.841Z,14.90
2023-03-24T11:19:21.720Z,15.30
2023-03-24T11:21:54.116Z,15.90
2023-03-24T11:24:22.863Z,16.90
2023-03-24T11:26:57.132Z,17.60
2023-03-24T11:29:28.210Z,18.50
2023-03-24T11:32:00.886Z,19.40
2023-03-24T11:34:34.467Z,19.00
2023-03-24T11:37:05.159Z,18.50
2023-03-24T11:39:35.606Z,17.40
2023-03-24T11:42:14.783Z,16.60
2023-03-24T11:44:47.195Z,15.90
2023-03-24T11:47:24.455Z,15.50
2023-03-24T11:50:02.742Z,15.30
2023-03-24T11:52:36.061Z,15.40
2023-03-24T11:55:14.630Z,15.90
2023-03-24T11:57:51.599Z,17.30
2023-03-24T12:00:27.490Z,17.60
2023-03-24T12:03:26.846Z,17.30
2023-03-24T12:06:04.216Z,17.20
2023-03-24T12:08:43.166Z,17.80
2023-03-24T12:11:19.499Z,17.50
2023-03-24T12:13:51.805Z,17.50
2023-03-24T12:16:42.197Z,17.40
2023-03-24T12:19:28.238Z,18.40
2023-03-24T12:22:08.310Z,19.00
2023-03-24T12:24:58.051Z,18.90
2023-03-24T12:27:36.194Z,18.70
2023-03-24T12:30:08.881Z,17.80
2023-03-24T12:32:52.894Z,17.70
2023-03-24T12:35:52.092Z,16.90
2023-03-24T12:38:38.259Z,16.70
2023-03-24T12:41:30.004Z,17.00
2023-03-24T12:44:21.026Z,18.10
2023-03-24T12:46:57.934Z,18.20
2023-03-24T12:49:43.239Z,17.40
2023-03-24T12:52:32.040Z,16.70
2023-03-24T12:55:07.342Z,16.20
2023-03-24T12:57:39.503Z,16.00
2023-03-24T13:00:13.238Z,16.10
2023-03-24T13:02:49.536Z,16.10
2023-03-24T13:05:23.276Z,15.90
2023-03-24T13:07:58.631Z,16.00
2023-03-24T13:10:30.071Z,15.80
2023-03-24T13:13:05.667Z,15.70
2023-03-24T13:15:40.578Z,15.40
2023-03-24T13:18:26.442Z,15.20
2023-03-24T13:20:57.907Z,15.30
2023-03-24T13:23:38.326Z,15.40
2023-03-24T13:26:14.234Z,15.50
2023-03-24T13:28:52.056Z,15.50
2023-03-24T13:31:24.837Z,15.30
2023-03-24T13:33:55.685Z,15.10
2023-03-24T13:36:44.093Z,15.10
2023-03-24T13:39:18.441Z,15.20
2023-03-24T13:41:52.397Z,15.30
2023-03-24T13:44:24.382Z,15.30
2023-03-24T13:47:14.818Z,16.40
2023-03-24T13:49:46.935Z,18.20
2023-03-24T13:52:29.390Z,19.20
2023-03-24T13:55:03.196Z,20.00
2023-03-24T13:57:32.006Z,19.10
2023-03-24T14:00:09.077Z,20.20
2023-03-24T14:02:49.940Z,20.60
2023-03-24T14:05:34.260Z,21.80
2023-03-24T14:19:42.269Z,17.10
2023-03-24T14:39:51.179Z,13.90
2023-03-24T14:43:57.226Z,13.90
2023-03-24T14:47:16.389Z,14.90
2023-03-24T15:11:57.644Z,18.50
2023-03-24T15:14:29.733Z,20.00
2023-03-24T15:18:11.255Z,19.40
2023-03-24T15:39:29.029Z,15.20
2023-03-24T15:45:53.008Z,13.90
2023-03-24T15:48:28.876Z,12.90
2023-03-24T15:51:00.668Z,12.40
2023-03-24T15:53:42.235Z,11.50
2023-03-24T15:56:20.880Z,10.80
2023-03-24T15:58:55.144Z,10.50
2023-03-24T16:01:31.698Z,10.40
2023-03-24T16:04:04.927Z,10.30
2023-03-24T16:06:38.535Z,10.30
2023-03-24T16:09:15.307Z,10.40
2023-03-24T16:11:47.936Z,10.40
2023-03-24T16:14:23.889Z,10.30
2023-03-24T16:16:56.194Z,10.30
2023-03-24T16:19:28.091Z,10.30
2023-03-24T16:21:57.205Z,10.40
2023-03-24T16:24:30.395Z,11.00
2023-03-24T16:27:03.607Z,11.90
2023-03-24T16:29:37.217Z,12.40
2023-03-24T16:32:07.109Z,13.20
2023-03-24T16:34:36.895Z,14.10
2023-03-24T16:37:05.843Z,15.30
2023-03-24T16:39:34.474Z,16.10
2023-03-24T16:42:04.806Z,16.70
2023-03-24T16:44:33.756Z,16.70
2023-03-24T16:47:02.372Z,16.50
2023-03-24T16:49:31.284Z,16.30
2023-03-24T16:51:59.844Z,16.20
2023-03-24T16:54:28.558Z,16.50
2023-03-24T16:56:57.193Z,16.10
2023-03-24T16:59:27.591Z,15.80
2023-03-24T17:01:56.458Z,15.80
2023-03-24T17:04:27.638Z,16.00
2023-03-24T17:06:56.336Z,16.00
2023-03-24T17:09:25.820Z,16.50
2023-03-24T17:11:56.734Z,16.20
2023-03-24T17:14:27.505Z,16.00
2023-03-24T17:16:56.441Z,15.90
2023-03-24T17:19:26.929Z,15.90
2023-03-24T17:22:01.554Z,15.10
2023-03-24T17:24:31.167Z,14.10
2023-03-24T22:08:08.966Z,10.40
2023-03-24T22:10:42.808Z,10.50
2023-03-24T22:13:19.617Z,10.50
2023-03-24T22:15:55.164Z,10.50
2023-03-24T22:18:27.492Z,10.50
2023-03-24T22:21:01.521Z,10.50
2023-03-24T22:23:34.767Z,10.50
2023-03-24T22:26:05.252Z,10.50
2023-03-24T22:28:38.565Z,10.40
2023-03-24T22:31:59.874Z,10.50
2023-03-24T22:34:29.222Z,10.50
2023-03-24T22:36:58.101Z,10.50
2023-03-24T22:39:30.576Z,10.50
2023-03-24T22:42:01.644Z,10.30
2023-03-24T22:44:34.101Z,10.10
2023-03-24T23:49:53.108Z,9.80
2023-03-24T23:52:21.604Z,9.80
2023-03-24T23:54:50.123Z,9.70
2023-03-24T23:57:18.647Z,9.60
2023-03-24T23:59:49.588Z,9.60
